UAE44PM EGPF-OMDB
Flight info
| Callsign | UAE44PM |
|---|---|
| Flight time | N/A |
| Altitude | 37000 |
| Route | NORBO Y96 HAVEN DCT ERKIT N110 DOLAS DCT NAVPI DCT DODEN DCT NEGIX DCT DINKU M867 XERUM DCT BAVAX DCT RADIZ DCT NIPEL DCT ELTIB DCT VRANA DCT DIMIS/N0467F390 DCT SALUN N705 MMA P751 DASUM Y234 FYM M872 BDB Y214 KODIS/N0470F410 Y214 RAPMA DCT KUVSO DCT KATIT DCT PEKEM M628 RIGIL G783 ELUDA/N0492F350 G783 ASPED Q308 KIPOK/N0494F340 Q568 IMPED |
| Aircraft | A343/H-SDE2E3FGHIJ4J5M1RWXY/LB1D1 |
Departure
| Time | 2026-05-04 11:51 |
|---|---|
| Airport | Glasgow Airport (EGPF) |
Arrival
| Time | N/A |
|---|---|
| Airport | Dubai International Airport (OMDB) |
| Time | Latitude | Longitude | Altitude | Speed | Heading |
|---|---|---|---|---|---|
| 2026-05-04 11:31 | 55.86669 | -4.43693 | 32 ft | 0 kts | 242° |
| 2026-05-04 11:41 | 55.86669 | -4.43691 | 32 ft | 2 kts | 242° |
| 2026-05-04 11:41 | 55.86677 | -4.43666 | 30 ft | 4 kts | 247° |
| 2026-05-04 11:41 | 55.86682 | -4.43622 | 32 ft | 4 kts | 285° |
| 2026-05-04 11:41 | 55.86669 | -4.43588 | 29 ft | 4 kts | 339° |
| 2026-05-04 11:42 | 55.86664 | -4.43585 | 30 ft | 0 kts | 344° |
| 2026-05-04 11:45 | 55.86677 | -4.43589 | 31 ft | 6 kts | 354° |
| 2026-05-04 11:46 | 55.86719 | -4.43574 | 33 ft | 6 kts | 27° |
| 2026-05-04 11:46 | 55.86752 | -4.43522 | 33 ft | 7 kts | 51° |
| 2026-05-04 11:46 | 55.86780 | -4.43445 | 34 ft | 7 kts | 74° |
| 2026-05-04 11:46 | 55.86793 | -4.43358 | 34 ft | 7 kts | 75° |
| 2026-05-04 11:47 | 55.86806 | -4.43276 | 34 ft | 7 kts | 73° |
| 2026-05-04 11:47 | 55.86825 | -4.43227 | 36 ft | 5 kts | 64° |
| 2026-05-04 11:47 | 55.86848 | -4.43097 | 35 ft | 14 kts | 72° |
| 2026-05-04 11:47 | 55.86898 | -4.42957 | 36 ft | 14 kts | 39° |
| 2026-05-04 11:48 | 55.86987 | -4.42872 | 34 ft | 16 kts | 25° |
| 2026-05-04 11:48 | 55.87094 | -4.42787 | 32 ft | 18 kts | 23° |
| 2026-05-04 11:48 | 55.87213 | -4.42704 | 31 ft | 19 kts | 19° |
| 2026-05-04 11:48 | 55.87338 | -4.42630 | 32 ft | 19 kts | 19° |
| 2026-05-04 11:49 | 55.87447 | -4.42497 | 32 ft | 19 kts | 47° |
| 2026-05-04 11:49 | 55.87537 | -4.42325 | 30 ft | 20 kts | 46° |
| 2026-05-04 11:49 | 55.87638 | -4.42137 | 28 ft | 22 kts | 46° |
| 2026-05-04 11:49 | 55.87726 | -4.41974 | 27 ft | 12 kts | 46° |
| 2026-05-04 11:50 | 55.87794 | -4.41873 | 26 ft | 14 kts | 30° |
| 2026-05-04 11:50 | 55.87885 | -4.41884 | 27 ft | 10 kts | 317° |
| 2026-05-04 11:50 | 55.87890 | -4.41988 | 28 ft | 8 kts | 257° |
| 2026-05-04 11:50 | 55.87863 | -4.42072 | 29 ft | 8 kts | 228° |
| 2026-05-04 11:51 | 55.87801 | -4.42190 | 29 ft | 35 kts | 226° |
| 2026-05-04 11:51 | 55.87472 | -4.42904 | 35 ft | 109 kts | 234° |
| 2026-05-04 11:51 | 55.86814 | -4.43974 | 233 ft | 138 kts | 185° |
| 2026-05-04 11:51 | 55.86006 | -4.44378 | 1023 ft | 117 kts | 205° |
| 2026-05-04 11:52 | 55.85224 | -4.45008 | 1558 ft | 131 kts | 206° |
| 2026-05-04 11:52 | 55.84367 | -4.45751 | 2193 ft | 142 kts | 207° |
| 2026-05-04 11:52 | 55.83436 | -4.46581 | 2762 ft | 163 kts | 207° |
| 2026-05-04 11:52 | 55.82357 | -4.47574 | 3383 ft | 185 kts | 208° |
| 2026-05-04 11:53 | 55.81167 | -4.48702 | 4113 ft | 202 kts | 209° |
| 2026-05-04 11:53 | 55.79913 | -4.49926 | 4948 ft | 207 kts | 210° |
| 2026-05-04 11:53 | 55.78652 | -4.51187 | 5780 ft | 209 kts | 210° |
| 2026-05-04 11:53 | 55.77386 | -4.52481 | 6605 ft | 210 kts | 211° |
| 2026-05-04 11:55 | 55.69272 | -4.53705 | 11779 ft | 208 kts | 109° |
| 2026-05-04 11:55 | 55.68885 | -4.51226 | 12433 ft | 209 kts | 104° |
| 2026-05-04 11:56 | 55.68581 | -4.48701 | 13063 ft | 211 kts | 102° |
| 2026-05-04 11:56 | 55.68288 | -4.46101 | 13549 ft | 222 kts | 102° |
| 2026-05-04 11:56 | 55.67955 | -4.43311 | 13858 ft | 242 kts | 103° |
| 2026-05-04 11:56 | 55.67561 | -4.40294 | 14170 ft | 261 kts | 104° |
| 2026-05-04 11:57 | 55.67115 | -4.37099 | 14476 ft | 279 kts | 105° |
| 2026-05-04 11:57 | 55.66616 | -4.33664 | 14784 ft | 297 kts | 105° |
| 2026-05-04 11:57 | 55.66080 | -4.30035 | 15075 ft | 312 kts | 105° |
| 2026-05-04 11:57 | 55.65515 | -4.26226 | 15363 ft | 328 kts | 105° |
| 2026-05-04 11:58 | 55.64921 | -4.22225 | 15651 ft | 344 kts | 105° |
| 2026-05-04 11:58 | 55.64303 | -4.18041 | 15938 ft | 359 kts | 104° |
| 2026-05-04 11:58 | 55.63663 | -4.13674 | 16222 ft | 373 kts | 104° |
| 2026-05-04 11:58 | 55.63005 | -4.09164 | 16660 ft | 382 kts | 104° |
| 2026-05-04 11:59 | 55.62346 | -4.04641 | 17202 ft | 388 kts | 104° |
| 2026-05-04 11:59 | 55.61664 | -4.00009 | 17797 ft | 392 kts | 104° |
| 2026-05-04 11:59 | 55.60967 | -3.95321 | 18376 ft | 395 kts | 104° |
| 2026-05-04 11:59 | 55.60258 | -3.90599 | 18950 ft | 399 kts | 105° |
| 2026-05-04 12:00 | 55.59539 | -3.85848 | 19536 ft | 402 kts | 105° |
| 2026-05-04 12:00 | 55.58808 | -3.81050 | 20082 ft | 406 kts | 105° |
| 2026-05-04 12:00 | 55.58069 | -3.76207 | 20634 ft | 409 kts | 105° |
| 2026-05-04 12:00 | 55.57324 | -3.71345 | 21146 ft | 412 kts | 105° |
| 2026-05-04 12:01 | 55.56569 | -3.66435 | 21648 ft | 416 kts | 105° |
| 2026-05-04 12:01 | 55.55817 | -3.61548 | 22136 ft | 419 kts | 105° |
| 2026-05-04 12:02 | 55.50975 | -3.31208 | 24707 ft | 437 kts | 105° |
| 2026-05-04 12:03 | 55.50168 | -3.26032 | 25116 ft | 437 kts | 111° |
| 2026-05-04 12:03 | 55.49147 | -3.21100 | 26111 ft | 416 kts | 122° |
| 2026-05-04 12:03 | 55.47757 | -3.17041 | 27750 ft | 365 kts | 146° |
| 2026-05-04 12:03 | 55.45880 | -3.15006 | 29439 ft | 285 kts | 161° |
| 2026-05-04 12:04 | 55.44618 | -3.14656 | 25239 ft | 124 kts | 135° |
| 2026-05-04 12:04 | 55.44076 | -3.14307 | 16588 ft | 58 kts | 296° |
| 2026-05-04 12:04 | 55.43852 | -3.14221 | 7577 ft | 64 kts | 196° |
| 2026-05-04 12:04 | 55.43793 | -3.14169 | 1161 ft | 8 kts | 287° |
| 2026-05-04 12:05 | 55.43793 | -3.14172 | 1152 ft | 0 kts | 289° |
| 2026-05-04 12:05 | 55.86669 | -4.43693 | 1152 ft | 0 kts | 242° |
| 2026-05-04 12:07 | 55.87789 | -4.42212 | 28 ft | 0 kts | 226° |